Terminal Aerodrome Forecast
Issued by NWS Paducah, KY

Home | Current Version | Previous Version | Text Only | Print | Product List | Glossary Off
Versions: 1 2 3 4 5 6 7 8 9 10 11 12 13

000
FTUS43 KPAH 121600 AAA
TAFEVV
TAF AMD
KEVV 121625Z 1216/1312 21006KT P6SM VCSH SCT050 BKN100
      TEMPO 1217/1218 3SM -TSRA BR OVC035CB
     FM121800 21008KT P6SM SCT050 BKN150
     FM130000 21004KT P6SM SCT150 BKN250=

USA.gov is the U.S. government's official web portal to all federal, state and local government web resources and services.